Terminal Aerodrome Forecast
Issued by NWS Northern Indiana

Home | Current Version | Previous Version | Text Only | Print | Product List | Glossary On
Versions: 1 2 3 4 5 6 7 8 9 10 11 12 13 14 15 16 17 18 19 20 21 22 23 24
767
FTUS43 KIWX 230535
TAFFWA
TAF
KFWA 230535Z 2306/2406 18015KT 4SM RA BR OVC015 WS020/21055KT
     FM230900 18012KT 2SM RA BR OVC006 WS020/21055KT
     FM231800 24015G22KT 4SM BR OVC008
     FM240000 28012KT P6SM OVC010=

USA.gov is the U.S. government's official web portal to all federal, state and local government web resources and services.